sensor_id;sensor_type;location;lat;lon;timestamp;temperature;humidity
65876;HTU21D;52657;51.128;5.938;2022-09-09T00:00:25;19.47;69.32
65876;HTU21D;52657;51.128;5.938;2022-09-09T00:08:21;19.45;69.17
65876;HTU21D;52657;51.128;5.938;2022-09-09T00:10:58;19.41;68.96
65876;HTU21D;52657;51.128;5.938;2022-09-09T00:14:02;19.33;69.26
65876;HTU21D;52657;51.128;5.938;2022-09-09T00:16:38;19.30;69.42
65876;HTU21D;52657;51.128;5.938;2022-09-09T00:21:50;19.24;69.13
65876;HTU21D;52657;51.128;5.938;2022-09-09T00:24:54;19.20;69.36
65876;HTU21D;52657;51.128;5.938;2022-09-09T00:30:01;19.12;69.45
65876;HTU21D;52657;51.128;5.938;2022-09-09T00:32:30;19.11;69.27
65876;HTU21D;52657;51.128;5.938;2022-09-09T00:35:25;19.07;69.67
65876;HTU21D;52657;51.128;5.938;2022-09-09T00:37:58;19.05;69.97
65876;HTU21D;52657;51.128;5.938;2022-09-09T00:40:33;19.03;69.82
65876;HTU21D;52657;51.128;5.938;2022-09-09T00:46:07;18.99;69.39
65876;HTU21D;52657;51.128;5.938;2022-09-09T00:51:44;18.95;69.83
65876;HTU21D;52657;51.128;5.938;2022-09-09T00:57:10;18.92;69.99
65876;HTU21D;52657;51.128;5.938;2022-09-09T00:59:51;18.91;70.35
65876;HTU21D;52657;51.128;5.938;2022-09-09T01:05:26;18.95;70.21
65876;HTU21D;52657;51.128;5.938;2022-09-09T01:07:52;18.92;70.31
65876;HTU21D;52657;51.128;5.938;2022-09-09T01:10:52;18.91;70.45
65876;HTU21D;52657;51.128;5.938;2022-09-09T01:13:28;18.87;70.71
65876;HTU21D;52657;51.128;5.938;2022-09-09T01:16:03;18.85;70.39
65876;HTU21D;52657;51.128;5.938;2022-09-09T01:18:38;18.81;70.55
65876;HTU21D;52657;51.128;5.938;2022-09-09T01:24:22;18.73;70.81
65876;HTU21D;52657;51.128;5.938;2022-09-09T01:27:15;18.72;70.76
65876;HTU21D;52657;51.128;5.938;2022-09-09T01:29:43;18.66;71.08
65876;HTU21D;52657;51.128;5.938;2022-09-09T01:32:39;18.63;71.35
65876;HTU21D;52657;51.128;5.938;2022-09-09T01:35:15;18.58;71.48
65876;HTU21D;52657;51.128;5.938;2022-09-09T01:37:45;18.57;71.46
65876;HTU21D;52657;51.128;5.938;2022-09-09T01:40:11;18.55;71.48
65876;HTU21D;52657;51.128;5.938;2022-09-09T01:42:38;18.55;71.63
65876;HTU21D;52657;51.128;5.938;2022-09-09T01:45:04;18.53;71.60
65876;HTU21D;52657;51.128;5.938;2022-09-09T01:47:30;18.52;71.64
65876;HTU21D;52657;51.128;5.938;2022-09-09T01:50:17;18.50;71.71
65876;HTU21D;52657;51.128;5.938;2022-09-09T01:52:48;18.54;71.60
65876;HTU21D;52657;51.128;5.938;2022-09-09T01:55:30;18.54;71.50
65876;HTU21D;52657;51.128;5.938;2022-09-09T01:58:13;18.51;71.65
65876;HTU21D;52657;51.128;5.938;2022-09-09T02:01:01;18.49;71.75
65876;HTU21D;52657;51.128;5.938;2022-09-09T02:03:32;18.53;71.38
65876;HTU21D;52657;51.128;5.938;2022-09-09T02:09:07;18.49;71.51
65876;HTU21D;52657;51.128;5.938;2022-09-09T02:11:38;18.49;71.32
65876;HTU21D;52657;51.128;5.938;2022-09-09T02:14:22;18.48;71.58
65876;HTU21D;52657;51.128;5.938;2022-09-09T02:16:54;18.49;71.68
65876;HTU21D;52657;51.128;5.938;2022-09-09T02:19:32;18.47;71.76
65876;HTU21D;52657;51.128;5.938;2022-09-09T02:22:13;18.43;71.87
65876;HTU21D;52657;51.128;5.938;2022-09-09T02:24:40;18.37;72.20
65876;HTU21D;52657;51.128;5.938;2022-09-09T02:27:18;18.39;72.05
65876;HTU21D;52657;51.128;5.938;2022-09-09T02:29:45;18.40;71.71
65876;HTU21D;52657;51.128;5.938;2022-09-09T02:32:35;18.43;71.79
65876;HTU21D;52657;51.128;5.938;2022-09-09T02:35:09;18.44;71.78
65876;HTU21D;52657;51.128;5.938;2022-09-09T02:37:39;18.40;71.99
65876;HTU21D;52657;51.128;5.938;2022-09-09T02:40:09;18.36;72.24
65876;HTU21D;52657;51.128;5.938;2022-09-09T02:42:43;18.33;72.34
65876;HTU21D;52657;51.128;5.938;2022-09-09T02:45:12;18.32;72.56
65876;HTU21D;52657;51.128;5.938;2022-09-09T02:50:19;18.30;72.59
65876;HTU21D;52657;51.128;5.938;2022-09-09T02:57:56;18.27;73.09
65876;HTU21D;52657;51.128;5.938;2022-09-09T03:00:28;18.26;73.05
65876;HTU21D;52657;51.128;5.938;2022-09-09T03:02:58;18.27;73.19
65876;HTU21D;52657;51.128;5.938;2022-09-09T03:05:25;18.27;72.96
65876;HTU21D;52657;51.128;5.938;2022-09-09T03:07:51;18.26;73.28
65876;HTU21D;52657;51.128;5.938;2022-09-09T03:10:19;18.28;73.38
65876;HTU21D;52657;51.128;5.938;2022-09-09T03:12:45;18.28;73.51
65876;HTU21D;52657;51.128;5.938;2022-09-09T03:15:11;18.25;73.57
65876;HTU21D;52657;51.128;5.938;2022-09-09T03:17:38;18.26;73.59
65876;HTU21D;52657;51.128;5.938;2022-09-09T03:20:05;18.27;73.51
65876;HTU21D;52657;51.128;5.938;2022-09-09T03:22:32;18.28;73.45
65876;HTU21D;52657;51.128;5.938;2022-09-09T03:24:59;18.30;73.27
65876;HTU21D;52657;51.128;5.938;2022-09-09T03:27:25;18.29;73.34
65876;HTU21D;52657;51.128;5.938;2022-09-09T03:29:51;18.29;73.36
65876;HTU21D;52657;51.128;5.938;2022-09-09T03:32:21;18.24;73.47
65876;HTU21D;52657;51.128;5.938;2022-09-09T03:34:52;18.21;73.79
65876;HTU21D;52657;51.128;5.938;2022-09-09T03:37:19;18.20;73.90
65876;HTU21D;52657;51.128;5.938;2022-09-09T03:39:48;18.17;74.23
65876;HTU21D;52657;51.128;5.938;2022-09-09T03:42:16;18.19;74.35
65876;HTU21D;52657;51.128;5.938;2022-09-09T03:44:49;18.20;74.51
65876;HTU21D;52657;51.128;5.938;2022-09-09T03:47:18;18.20;74.60
65876;HTU21D;52657;51.128;5.938;2022-09-09T03:49:47;18.20;74.73
65876;HTU21D;52657;51.128;5.938;2022-09-09T03:52:14;18.24;74.66
65876;HTU21D;52657;51.128;5.938;2022-09-09T03:54:41;18.25;74.60
65876;HTU21D;52657;51.128;5.938;2022-09-09T03:57:09;18.27;74.49
65876;HTU21D;52657;51.128;5.938;2022-09-09T03:59:35;18.29;74.35
65876;HTU21D;52657;51.128;5.938;2022-09-09T04:02:02;18.32;74.38
65876;HTU21D;52657;51.128;5.938;2022-09-09T04:04:28;18.38;74.15
65876;HTU21D;52657;51.128;5.938;2022-09-09T04:06:54;18.41;74.06
65876;HTU21D;52657;51.128;5.938;2022-09-09T04:09:20;18.43;74.01
65876;HTU21D;52657;51.128;5.938;2022-09-09T04:11:48;18.41;74.19
65876;HTU21D;52657;51.128;5.938;2022-09-09T04:14:15;18.42;74.22
65876;HTU21D;52657;51.128;5.938;2022-09-09T04:16:40;18.41;74.16
65876;HTU21D;52657;51.128;5.938;2022-09-09T04:19:12;18.41;74.25
65876;HTU21D;52657;51.128;5.938;2022-09-09T04:21:41;18.42;74.21
65876;HTU21D;52657;51.128;5.938;2022-09-09T04:24:08;18.47;74.15
65876;HTU21D;52657;51.128;5.938;2022-09-09T04:26:35;18.49;74.09
65876;HTU21D;52657;51.128;5.938;2022-09-09T04:29:03;18.52;73.91
65876;HTU21D;52657;51.128;5.938;2022-09-09T04:31:30;18.54;73.77
65876;HTU21D;52657;51.128;5.938;2022-09-09T04:33:56;18.55;73.77
65876;HTU21D;52657;51.128;5.938;2022-09-09T04:36:23;18.58;73.73
65876;HTU21D;52657;51.128;5.938;2022-09-09T04:38:53;18.59;73.67
65876;HTU21D;52657;51.128;5.938;2022-09-09T04:41:20;18.63;73.71
65876;HTU21D;52657;51.128;5.938;2022-09-09T04:43:49;18.57;73.76
65876;HTU21D;52657;51.128;5.938;2022-09-09T04:46:16;18.56;73.98
65876;HTU21D;52657;51.128;5.938;2022-09-09T04:48:48;18.54;74.20
65876;HTU21D;52657;51.128;5.938;2022-09-09T04:51:15;18.52;74.29
65876;HTU21D;52657;51.128;5.938;2022-09-09T04:53:42;18.52;74.30
65876;HTU21D;52657;51.128;5.938;2022-09-09T04:56:11;18.49;74.51
65876;HTU21D;52657;51.128;5.938;2022-09-09T04:58:45;18.48;74.51
65876;HTU21D;52657;51.128;5.938;2022-09-09T05:01:18;18.46;74.59
65876;HTU21D;52657;51.128;5.938;2022-09-09T05:03:46;18.44;74.64
65876;HTU21D;52657;51.128;5.938;2022-09-09T05:06:18;18.48;74.51
65876;HTU21D;52657;51.128;5.938;2022-09-09T05:08:47;18.50;74.32
65876;HTU21D;52657;51.128;5.938;2022-09-09T05:11:19;18.49;74.20
65876;HTU21D;52657;51.128;5.938;2022-09-09T05:13:46;18.50;74.09
65876;HTU21D;52657;51.128;5.938;2022-09-09T05:16:13;18.51;73.93
65876;HTU21D;52657;51.128;5.938;2022-09-09T05:18:40;18.47;73.96
65876;HTU21D;52657;51.128;5.938;2022-09-09T05:21:07;18.47;73.99
65876;HTU21D;52657;51.128;5.938;2022-09-09T05:23:33;18.48;73.86
65876;HTU21D;52657;51.128;5.938;2022-09-09T05:26:00;18.46;73.96
65876;HTU21D;52657;51.128;5.938;2022-09-09T05:28:28;18.43;73.98
65876;HTU21D;52657;51.128;5.938;2022-09-09T05:30:57;18.46;73.86
65876;HTU21D;52657;51.128;5.938;2022-09-09T05:33:23;18.46;73.78
65876;HTU21D;52657;51.128;5.938;2022-09-09T05:36:07;18.41;73.80
65876;HTU21D;52657;51.128;5.938;2022-09-09T05:38:35;18.39;73.92
65876;HTU21D;52657;51.128;5.938;2022-09-09T05:41:02;18.37;73.98
65876;HTU21D;52657;51.128;5.938;2022-09-09T05:43:29;18.39;73.99
65876;HTU21D;52657;51.128;5.938;2022-09-09T05:46:07;18.41;73.99
65876;HTU21D;52657;51.128;5.938;2022-09-09T05:48:36;18.40;74.10
65876;HTU21D;52657;51.128;5.938;2022-09-09T05:51:04;18.42;74.13
65876;HTU21D;52657;51.128;5.938;2022-09-09T05:53:31;18.47;74.02
65876;HTU21D;52657;51.128;5.938;2022-09-09T05:56:09;18.49;73.85
65876;HTU21D;52657;51.128;5.938;2022-09-09T05:58:38;18.53;73.83
65876;HTU21D;52657;51.128;5.938;2022-09-09T06:01:13;18.59;73.83
65876;HTU21D;52657;51.128;5.938;2022-09-09T06:03:43;18.69;73.50
65876;HTU21D;52657;51.128;5.938;2022-09-09T06:06:12;18.69;73.72
65876;HTU21D;52657;51.128;5.938;2022-09-09T06:08:40;18.72;73.49
65876;HTU21D;52657;51.128;5.938;2022-09-09T06:11:09;18.84;73.34
65876;HTU21D;52657;51.128;5.938;2022-09-09T06:13:37;18.88;73.13
65876;HTU21D;52657;51.128;5.938;2022-09-09T06:16:17;18.86;72.95
65876;HTU21D;52657;51.128;5.938;2022-09-09T06:18:44;18.91;72.99
65876;HTU21D;52657;51.128;5.938;2022-09-09T06:21:25;18.97;73.15
65876;HTU21D;52657;51.128;5.938;2022-09-09T06:23:52;19.06;73.04
65876;HTU21D;52657;51.128;5.938;2022-09-09T06:26:27;19.10;72.57
65876;HTU21D;52657;51.128;5.938;2022-09-09T06:28:55;19.17;72.52
65876;HTU21D;52657;51.128;5.938;2022-09-09T06:31:28;19.23;72.34
65876;HTU21D;52657;51.128;5.938;2022-09-09T06:34:06;19.29;72.05
65876;HTU21D;52657;51.128;5.938;2022-09-09T06:36:35;19.31;71.90
65876;HTU21D;52657;51.128;5.938;2022-09-09T06:39:02;19.32;71.58
65876;HTU21D;52657;51.128;5.938;2022-09-09T06:41:30;19.26;71.23
65876;HTU21D;52657;51.128;5.938;2022-09-09T06:43:57;19.26;71.29
65876;HTU21D;52657;51.128;5.938;2022-09-09T06:46:31;19.28;71.12
65876;HTU21D;52657;51.128;5.938;2022-09-09T06:48:59;19.29;71.03
65876;HTU21D;52657;51.128;5.938;2022-09-09T06:51:31;19.31;71.38
65876;HTU21D;52657;51.128;5.938;2022-09-09T06:54:00;19.37;71.87
65876;HTU21D;52657;51.128;5.938;2022-09-09T06:56:33;19.43;71.67
65876;HTU21D;52657;51.128;5.938;2022-09-09T06:59:05;19.51;71.64
65876;HTU21D;52657;51.128;5.938;2022-09-09T07:01:40;19.52;71.46
65876;HTU21D;52657;51.128;5.938;2022-09-09T07:04:10;19.53;70.68
65876;HTU21D;52657;51.128;5.938;2022-09-09T07:06:42;19.51;70.79
65876;HTU21D;52657;51.128;5.938;2022-09-09T07:09:13;19.56;70.80
65876;HTU21D;52657;51.128;5.938;2022-09-09T07:11:46;19.62;70.38
65876;HTU21D;52657;51.128;5.938;2022-09-09T07:14:14;20.07;70.69
65876;HTU21D;52657;51.128;5.938;2022-09-09T07:16:43;20.77;69.97
65876;HTU21D;52657;51.128;5.938;2022-09-09T07:19:10;21.63;66.53
65876;HTU21D;52657;51.128;5.938;2022-09-09T07:21:37;22.55;63.13
65876;HTU21D;52657;51.128;5.938;2022-09-09T07:24:03;23.38;60.80
65876;HTU21D;52657;51.128;5.938;2022-09-09T07:26:33;24.27;57.77
65876;HTU21D;52657;51.128;5.938;2022-09-09T07:29:00;24.94;55.16
65876;HTU21D;52657;51.128;5.938;2022-09-09T07:31:38;25.69;52.51
65876;HTU21D;52657;51.128;5.938;2022-09-09T07:34:08;26.08;51.02
65876;HTU21D;52657;51.128;5.938;2022-09-09T07:36:37;26.36;50.04
65876;HTU21D;52657;51.128;5.938;2022-09-09T07:39:10;26.67;49.49
65876;HTU21D;52657;51.128;5.938;2022-09-09T07:41:40;26.93;47.87
65876;HTU21D;52657;51.128;5.938;2022-09-09T07:44:12;27.29;46.70
65876;HTU21D;52657;51.128;5.938;2022-09-09T07:46:40;27.63;46.65
65876;HTU21D;52657;51.128;5.938;2022-09-09T07:49:09;27.84;45.37
65876;HTU21D;52657;51.128;5.938;2022-09-09T07:51:38;27.58;44.77
65876;HTU21D;52657;51.128;5.938;2022-09-09T07:54:10;26.91;45.49
65876;HTU21D;52657;51.128;5.938;2022-09-09T07:56:40;25.91;46.80
65876;HTU21D;52657;51.128;5.938;2022-09-09T07:59:07;25.10;48.74
65876;HTU21D;52657;51.128;5.938;2022-09-09T08:01:40;24.57;49.90
65876;HTU21D;52657;51.128;5.938;2022-09-09T08:04:10;24.08;51.85
65876;HTU21D;52657;51.128;5.938;2022-09-09T08:06:45;23.69;53.14
65876;HTU21D;52657;51.128;5.938;2022-09-09T08:09:13;23.35;53.93
65876;HTU21D;52657;51.128;5.938;2022-09-09T08:11:39;22.97;54.51
65876;HTU21D;52657;51.128;5.938;2022-09-09T08:14:07;22.67;55.25
65876;HTU21D;52657;51.128;5.938;2022-09-09T08:16:36;22.47;56.14
65876;HTU21D;52657;51.128;5.938;2022-09-09T08:19:03;22.29;56.68
65876;HTU21D;52657;51.128;5.938;2022-09-09T08:21:31;22.23;57.29
65876;HTU21D;52657;51.128;5.938;2022-09-09T08:24:01;22.05;57.38
65876;HTU21D;52657;51.128;5.938;2022-09-09T08:26:32;21.97;58.30
65876;HTU21D;52657;51.128;5.938;2022-09-09T08:29:03;21.97;58.45
65876;HTU21D;52657;51.128;5.938;2022-09-09T08:31:32;21.84;58.23
65876;HTU21D;52657;51.128;5.938;2022-09-09T08:33:59;21.80;58.64
65876;HTU21D;52657;51.128;5.938;2022-09-09T08:36:29;21.81;58.51
65876;HTU21D;52657;51.128;5.938;2022-09-09T08:38:57;21.74;58.36
65876;HTU21D;52657;51.128;5.938;2022-09-09T08:45:14;21.95;58.83
65876;HTU21D;52657;51.128;5.938;2022-09-09T08:57:49;23.87;53.16
65876;HTU21D;52657;51.128;5.938;2022-09-09T09:00:17;23.56;52.42
65876;HTU21D;52657;51.128;5.938;2022-09-09T09:05:48;23.00;54.17
65876;HTU21D;52657;51.128;5.938;2022-09-09T09:08:30;22.76;54.65
65876;HTU21D;52657;51.128;5.938;2022-09-09T09:10:59;22.52;55.02
65876;HTU21D;52657;51.128;5.938;2022-09-09T09:16:19;22.20;56.03
65876;HTU21D;52657;51.128;5.938;2022-09-09T09:18:48;22.09;56.42
65876;HTU21D;52657;51.128;5.938;2022-09-09T09:21:41;22.11;56.81
65876;HTU21D;52657;51.128;5.938;2022-09-09T09:24:23;21.99;56.79
65876;HTU21D;52657;51.128;5.938;2022-09-09T09:26:51;21.92;57.07
65876;HTU21D;52657;51.128;5.938;2022-09-09T09:29:21;21.84;57.38
65876;HTU21D;52657;51.128;5.938;2022-09-09T09:31:58;21.77;57.22
65876;HTU21D;52657;51.128;5.938;2022-09-09T09:34:27;21.75;57.23
65876;HTU21D;52657;51.128;5.938;2022-09-09T09:36:57;21.72;57.24
65876;HTU21D;52657;51.128;5.938;2022-09-09T09:39:29;21.68;57.94
65876;HTU21D;52657;51.128;5.938;2022-09-09T09:42:14;21.73;57.41
65876;HTU21D;52657;51.128;5.938;2022-09-09T09:44:43;21.77;57.19
65876;HTU21D;52657;51.128;5.938;2022-09-09T09:47:19;21.85;57.58
65876;HTU21D;52657;51.128;5.938;2022-09-09T09:49:57;21.89;57.10
65876;HTU21D;52657;51.128;5.938;2022-09-09T09:52:33;21.87;57.32
65876;HTU21D;52657;51.128;5.938;2022-09-09T09:55:04;21.87;57.96
65876;HTU21D;52657;51.128;5.938;2022-09-09T09:57:34;21.90;58.18
65876;HTU21D;52657;51.128;5.938;2022-09-09T10:00:17;21.96;57.94
65876;HTU21D;52657;51.128;5.938;2022-09-09T10:02:50;21.95;57.71
65876;HTU21D;52657;51.128;5.938;2022-09-09T10:05:24;21.94;57.84
65876;HTU21D;52657;51.128;5.938;2022-09-09T10:08:12;21.93;58.13
65876;HTU21D;52657;51.128;5.938;2022-09-09T10:13:44;21.88;58.58
65876;HTU21D;52657;51.128;5.938;2022-09-09T10:16:46;21.79;59.60
65876;HTU21D;52657;51.128;5.938;2022-09-09T10:19:35;21.73;59.93
65876;HTU21D;52657;51.128;5.938;2022-09-09T10:27:36;21.45;63.27
65876;HTU21D;52657;51.128;5.938;2022-09-09T10:32:49;21.69;63.51
65876;HTU21D;52657;51.128;5.938;2022-09-09T10:38:03;21.88;63.31
65876;HTU21D;52657;51.128;5.938;2022-09-09T10:41:09;21.89;62.21
65876;HTU21D;52657;51.128;5.938;2022-09-09T10:46:36;21.81;62.19
65876;HTU21D;52657;51.128;5.938;2022-09-09T10:49:31;21.88;62.35
65876;HTU21D;52657;51.128;5.938;2022-09-09T10:57:47;21.54;61.31
65876;HTU21D;52657;51.128;5.938;2022-09-09T11:00:24;21.52;61.15
65876;HTU21D;52657;51.128;5.938;2022-09-09T11:03:01;21.55;60.82
65876;HTU21D;52657;51.128;5.938;2022-09-09T11:05:49;21.54;60.51
65876;HTU21D;52657;51.128;5.938;2022-09-09T11:08:28;21.53;60.03
65876;HTU21D;52657;51.128;5.938;2022-09-09T11:11:21;21.53;60.03
65876;HTU21D;52657;51.128;5.938;2022-09-09T11:16:28;21.43;60.53
65876;HTU21D;52657;51.128;5.938;2022-09-09T11:19:03;21.35;61.21
65876;HTU21D;52657;51.128;5.938;2022-09-09T11:21:40;21.30;62.64
65876;HTU21D;52657;51.128;5.938;2022-09-09T11:24:16;21.27;63.44
65876;HTU21D;52657;51.128;5.938;2022-09-09T11:29:56;21.07;64.86
65876;HTU21D;52657;51.128;5.938;2022-09-09T11:35:47;20.78;66.46
65876;HTU21D;52657;51.128;5.938;2022-09-09T11:41:08;21.00;67.37
65876;HTU21D;52657;51.128;5.938;2022-09-09T11:43:47;21.19;68.16
65876;HTU21D;52657;51.128;5.938;2022-09-09T11:46:16;21.36;67.70
65876;HTU21D;52657;51.128;5.938;2022-09-09T11:48:56;21.52;67.57
65876;HTU21D;52657;51.128;5.938;2022-09-09T11:51:31;21.79;67.25
65876;HTU21D;52657;51.128;5.938;2022-09-09T11:56:46;21.93;65.83
65876;HTU21D;52657;51.128;5.938;2022-09-09T12:01:59;22.10;65.21
65876;HTU21D;52657;51.128;5.938;2022-09-09T12:07:34;22.31;64.75
65876;HTU21D;52657;51.128;5.938;2022-09-09T12:10:30;22.36;63.62
65876;HTU21D;52657;51.128;5.938;2022-09-09T12:13:13;22.41;63.78
65876;HTU21D;52657;51.128;5.938;2022-09-09T12:15:52;22.44;63.02
65876;HTU21D;52657;51.128;5.938;2022-09-09T12:18:36;22.38;62.20
65876;HTU21D;52657;51.128;5.938;2022-09-09T12:24:04;22.22;61.86
65876;HTU21D;52657;51.128;5.938;2022-09-09T12:26:41;22.21;61.93
65876;HTU21D;52657;51.128;5.938;2022-09-09T12:32:09;22.26;62.37
65876;HTU21D;52657;51.128;5.938;2022-09-09T12:40:00;22.51;61.24
65876;HTU21D;52657;51.128;5.938;2022-09-09T12:42:27;22.56;60.94
65876;HTU21D;52657;51.128;5.938;2022-09-09T12:48:00;22.76;60.16
65876;HTU21D;52657;51.128;5.938;2022-09-09T12:50:34;22.71;60.51
65876;HTU21D;52657;51.128;5.938;2022-09-09T12:53:07;22.71;59.96
65876;HTU21D;52657;51.128;5.938;2022-09-09T12:55:38;22.65;59.78
65876;HTU21D;52657;51.128;5.938;2022-09-09T12:58:06;22.61;60.15
65876;HTU21D;52657;51.128;5.938;2022-09-09T13:00:33;22.60;60.20
65876;HTU21D;52657;51.128;5.938;2022-09-09T13:03:02;22.49;60.47
65876;HTU21D;52657;51.128;5.938;2022-09-09T13:05:35;22.49;60.49
65876;HTU21D;52657;51.128;5.938;2022-09-09T13:08:03;22.51;60.40
65876;HTU21D;52657;51.128;5.938;2022-09-09T13:10:35;22.38;60.71
65876;HTU21D;52657;51.128;5.938;2022-09-09T13:13:01;22.06;61.28
65876;HTU21D;52657;51.128;5.938;2022-09-09T13:15:29;21.82;61.76
65876;HTU21D;52657;51.128;5.938;2022-09-09T13:17:58;21.64;62.18
65876;HTU21D;52657;51.128;5.938;2022-09-09T13:20:28;21.51;62.50
65876;HTU21D;52657;51.128;5.938;2022-09-09T13:22:55;21.38;63.08
65876;HTU21D;52657;51.128;5.938;2022-09-09T13:25:28;21.22;62.85
65876;HTU21D;52657;51.128;5.938;2022-09-09T13:33:17;21.00;63.71
65876;HTU21D;52657;51.128;5.938;2022-09-09T13:38:16;20.74;64.60
65876;HTU21D;52657;51.128;5.938;2022-09-09T13:43:23;20.61;65.52
65876;HTU21D;52657;51.128;5.938;2022-09-09T13:46:23;20.63;65.62
65876;HTU21D;52657;51.128;5.938;2022-09-09T13:48:58;20.71;65.62
65876;HTU21D;52657;51.128;5.938;2022-09-09T13:52:03;20.66;65.08
65876;HTU21D;52657;51.128;5.938;2022-09-09T13:54:30;20.59;65.79
65876;HTU21D;52657;51.128;5.938;2022-09-09T13:56:56;20.65;66.45
65876;HTU21D;52657;51.128;5.938;2022-09-09T13:59:21;20.74;66.55
65876;HTU21D;52657;51.128;5.938;2022-09-09T14:01:48;20.83;66.55
65876;HTU21D;52657;51.128;5.938;2022-09-09T14:04:18;20.86;66.56
65876;HTU21D;52657;51.128;5.938;2022-09-09T14:06:46;20.93;66.81
65876;HTU21D;52657;51.128;5.938;2022-09-09T14:09:15;21.04;67.02
65876;HTU21D;52657;51.128;5.938;2022-09-09T14:11:41;21.07;67.63
65876;HTU21D;52657;51.128;5.938;2022-09-09T14:14:07;21.21;67.22
65876;HTU21D;52657;51.128;5.938;2022-09-09T14:16:33;21.32;68.23
65876;HTU21D;52657;51.128;5.938;2022-09-09T14:18:58;21.44;67.38
65876;HTU21D;52657;51.128;5.938;2022-09-09T14:21:25;21.55;67.44
65876;HTU21D;52657;51.128;5.938;2022-09-09T14:23:52;21.70;67.04
65876;HTU21D;52657;51.128;5.938;2022-09-09T14:26:21;21.88;67.80
65876;HTU21D;52657;51.128;5.938;2022-09-09T14:28:48;22.06;67.42
65876;HTU21D;52657;51.128;5.938;2022-09-09T14:31:14;22.25;67.58
65876;HTU21D;52657;51.128;5.938;2022-09-09T14:33:40;22.44;67.32
65876;HTU21D;52657;51.128;5.938;2022-09-09T14:36:06;22.65;66.45
65876;HTU21D;52657;51.128;5.938;2022-09-09T14:38:34;22.73;65.98
65876;HTU21D;52657;51.128;5.938;2022-09-09T14:41:17;22.83;65.63
65876;HTU21D;52657;51.128;5.938;2022-09-09T14:43:44;22.87;64.82
65876;HTU21D;52657;51.128;5.938;2022-09-09T14:46:18;22.81;65.20
65876;HTU21D;52657;51.128;5.938;2022-09-09T14:48:44;22.79;64.98
65876;HTU21D;52657;51.128;5.938;2022-09-09T14:51:17;22.79;64.29
65876;HTU21D;52657;51.128;5.938;2022-09-09T14:53:44;22.71;63.47
65876;HTU21D;52657;51.128;5.938;2022-09-09T14:56:16;22.69;63.39
65876;HTU21D;52657;51.128;5.938;2022-09-09T14:58:43;22.75;63.24
65876;HTU21D;52657;51.128;5.938;2022-09-09T15:01:12;22.90;63.05
65876;HTU21D;52657;51.128;5.938;2022-09-09T15:03:39;23.00;62.63
65876;HTU21D;52657;51.128;5.938;2022-09-09T15:06:10;23.09;62.21
65876;HTU21D;52657;51.128;5.938;2022-09-09T15:08:37;23.14;62.23
65876;HTU21D;52657;51.128;5.938;2022-09-09T15:11:05;23.16;60.96
65876;HTU21D;52657;51.128;5.938;2022-09-09T15:13:36;23.16;60.26
65876;HTU21D;52657;51.128;5.938;2022-09-09T15:16:16;23.21;59.76
65876;HTU21D;52657;51.128;5.938;2022-09-09T15:18:43;23.23;59.71
65876;HTU21D;52657;51.128;5.938;2022-09-09T15:21:16;23.11;59.21
65876;HTU21D;52657;51.128;5.938;2022-09-09T15:23:43;22.99;59.65
65876;HTU21D;52657;51.128;5.938;2022-09-09T15:26:10;23.00;59.54
65876;HTU21D;52657;51.128;5.938;2022-09-09T15:28:37;23.09;59.83
65876;HTU21D;52657;51.128;5.938;2022-09-09T15:31:10;23.20;59.77
65876;HTU21D;52657;51.128;5.938;2022-09-09T15:33:37;23.30;59.43
65876;HTU21D;52657;51.128;5.938;2022-09-09T15:36:36;23.38;58.71
65876;HTU21D;52657;51.128;5.938;2022-09-09T15:39:05;23.37;58.35
65876;HTU21D;52657;51.128;5.938;2022-09-09T15:41:32;23.40;58.53
65876;HTU21D;52657;51.128;5.938;2022-09-09T15:43:59;23.46;58.51
65876;HTU21D;52657;51.128;5.938;2022-09-09T15:46:34;23.55;58.19
65876;HTU21D;52657;51.128;5.938;2022-09-09T15:49:09;23.56;57.54
65876;HTU21D;52657;51.128;5.938;2022-09-09T15:51:37;23.51;57.42
65876;HTU21D;52657;51.128;5.938;2022-09-09T15:54:03;23.44;57.14
65876;HTU21D;52657;51.128;5.938;2022-09-09T15:56:30;23.45;57.13
65876;HTU21D;52657;51.128;5.938;2022-09-09T15:58:57;23.49;57.18
65876;HTU21D;52657;51.128;5.938;2022-09-09T16:01:24;23.50;57.05
65876;HTU21D;52657;51.128;5.938;2022-09-09T16:03:50;23.57;56.68
65876;HTU21D;52657;51.128;5.938;2022-09-09T16:06:21;23.56;56.46
65876;HTU21D;52657;51.128;5.938;2022-09-09T16:08:50;23.53;56.14
65876;HTU21D;52657;51.128;5.938;2022-09-09T16:11:20;23.47;55.94
65876;HTU21D;52657;51.128;5.938;2022-09-09T16:13:48;23.45;56.49
65876;HTU21D;52657;51.128;5.938;2022-09-09T16:16:16;23.39;56.09
65876;HTU21D;52657;51.128;5.938;2022-09-09T16:18:46;23.36;56.19
65876;HTU21D;52657;51.128;5.938;2022-09-09T16:21:21;23.30;56.21
65876;HTU21D;52657;51.128;5.938;2022-09-09T16:23:47;23.23;56.74
65876;HTU21D;52657;51.128;5.938;2022-09-09T16:26:16;23.25;56.87
65876;HTU21D;52657;51.128;5.938;2022-09-09T16:28:42;23.18;56.61
65876;HTU21D;52657;51.128;5.938;2022-09-09T16:31:11;23.12;56.87
65876;HTU21D;52657;51.128;5.938;2022-09-09T16:33:40;23.10;56.74
65876;HTU21D;52657;51.128;5.938;2022-09-09T16:36:09;23.09;57.01
65876;HTU21D;52657;51.128;5.938;2022-09-09T16:38:36;23.07;57.26
65876;HTU21D;52657;51.128;5.938;2022-09-09T16:41:04;23.05;57.28
65876;HTU21D;52657;51.128;5.938;2022-09-09T16:43:34;23.02;57.58
65876;HTU21D;52657;51.128;5.938;2022-09-09T16:46:23;23.00;57.58
65876;HTU21D;52657;51.128;5.938;2022-09-09T16:48:50;22.99;57.32
65876;HTU21D;52657;51.128;5.938;2022-09-09T16:51:19;22.86;57.53
65876;HTU21D;52657;51.128;5.938;2022-09-09T16:53:45;22.80;57.88
65876;HTU21D;52657;51.128;5.938;2022-09-09T16:56:17;22.73;57.90
65876;HTU21D;52657;51.128;5.938;2022-09-09T16:58:59;22.69;58.06
65876;HTU21D;52657;51.128;5.938;2022-09-09T17:01:28;22.65;58.13
65876;HTU21D;52657;51.128;5.938;2022-09-09T17:03:59;22.60;58.23
65876;HTU21D;52657;51.128;5.938;2022-09-09T17:06:30;22.49;58.32
65876;HTU21D;52657;51.128;5.938;2022-09-09T17:08:57;22.39;58.87
65876;HTU21D;52657;51.128;5.938;2022-09-09T17:11:24;22.36;58.77
65876;HTU21D;52657;51.128;5.938;2022-09-09T17:13:51;22.31;58.67
65876;HTU21D;52657;51.128;5.938;2022-09-09T17:16:19;22.24;58.87
65876;HTU21D;52657;51.128;5.938;2022-09-09T17:18:49;22.13;58.77
65876;HTU21D;52657;51.128;5.938;2022-09-09T17:21:19;22.06;58.81
65876;HTU21D;52657;51.128;5.938;2022-09-09T17:23:46;21.99;58.46
65876;HTU21D;52657;51.128;5.938;2022-09-09T17:26:15;21.95;58.40
65876;HTU21D;52657;51.128;5.938;2022-09-09T17:28:42;21.90;58.41
65876;HTU21D;52657;51.128;5.938;2022-09-09T17:31:10;21.88;58.54
65876;HTU21D;52657;51.128;5.938;2022-09-09T17:33:39;21.85;58.39
65876;HTU21D;52657;51.128;5.938;2022-09-09T17:36:09;21.84;58.61
65876;HTU21D;52657;51.128;5.938;2022-09-09T17:38:37;21.79;58.81
65876;HTU21D;52657;51.128;5.938;2022-09-09T17:41:15;21.78;59.05
65876;HTU21D;52657;51.128;5.938;2022-09-09T17:43:41;21.77;59.20
65876;HTU21D;52657;51.128;5.938;2022-09-09T17:46:11;21.73;59.19